createdAt,value
2023-05-20T00:01:29.810Z,12.77
2023-05-20T00:04:15.344Z,12.52
2023-05-20T00:07:00.377Z,12.35
2023-05-20T00:09:45.723Z,12.23
2023-05-20T00:12:30.517Z,12.27
2023-05-20T00:15:15.975Z,12.47
2023-05-20T00:18:02.149Z,12.24
2023-05-20T00:20:47.153Z,12.06
2023-05-20T00:23:32.146Z,12.14
2023-05-20T00:26:17.176Z,12.39
2023-05-20T00:29:02.679Z,12.20
2023-05-20T00:31:47.946Z,12.35
2023-05-20T00:34:33.049Z,12.34
2023-05-20T00:37:18.525Z,12.58
2023-05-20T00:40:03.891Z,12.28
2023-05-20T00:42:49.322Z,11.98
2023-05-20T00:45:34.495Z,12.14
2023-05-20T00:48:21.497Z,12.00
2023-05-20T00:51:07.580Z,11.74
2023-05-20T00:53:53.148Z,12.27
2023-05-20T00:56:38.475Z,12.06
2023-05-20T00:59:24.224Z,11.93
2023-05-20T01:02:09.384Z,11.80
2023-05-20T01:04:56.881Z,11.87
2023-05-20T01:07:42.434Z,11.78
2023-05-20T01:10:30.448Z,11.63
2023-05-20T01:13:19.912Z,11.49
2023-05-20T01:16:05.632Z,11.48
2023-05-20T01:18:55.138Z,11.98
2023-05-20T01:21:42.450Z,11.53
2023-05-20T01:24:27.561Z,11.53
2023-05-20T01:27:13.427Z,11.77
2023-05-20T01:29:58.868Z,11.93
2023-05-20T01:32:58.534Z,11.99
2023-05-20T01:35:43.846Z,12.22
2023-05-20T01:38:29.648Z,11.76
2023-05-20T01:41:15.048Z,11.66
2023-05-20T01:44:01.876Z,11.45
2023-05-20T01:46:51.346Z,11.48
2023-05-20T01:49:36.606Z,11.35
2023-05-20T01:52:22.467Z,11.27
2023-05-20T01:55:07.710Z,11.62
2023-05-20T01:57:52.715Z,11.70
2023-05-20T02:00:37.933Z,11.46
2023-05-20T02:03:23.421Z,11.45
2023-05-20T02:06:08.251Z,11.49
2023-05-20T02:08:53.486Z,11.46
2023-05-20T02:11:38.288Z,12.02
2023-05-20T02:14:23.070Z,11.57
2023-05-20T02:17:07.975Z,11.52
2023-05-20T02:19:52.771Z,11.32
2023-05-20T02:22:37.910Z,11.70
2023-05-20T02:25:24.185Z,11.66
2023-05-20T02:28:11.016Z,11.67
2023-05-20T02:30:55.821Z,11.34
2023-05-20T02:33:41.011Z,11.55
2023-05-20T02:36:25.823Z,11.52
2023-05-20T02:39:11.104Z,11.32
2023-05-20T02:41:56.318Z,11.54
2023-05-20T02:44:41.791Z,11.35
2023-05-20T02:47:27.199Z,11.69
2023-05-20T02:50:12.218Z,11.33
2023-05-20T02:52:57.409Z,11.01
2023-05-20T02:55:42.575Z,10.96
2023-05-20T02:58:28.701Z,11.22
2023-05-20T03:01:13.945Z,11.25
2023-05-20T03:03:59.365Z,11.34
2023-05-20T03:06:46.413Z,10.99
2023-05-20T03:09:32.108Z,11.59
2023-05-20T03:12:17.381Z,11.64
2023-05-20T03:15:02.277Z,11.14
2023-05-20T03:17:47.275Z,10.97
2023-05-20T03:20:38.596Z,10.95
2023-05-20T03:23:23.465Z,10.92
2023-05-20T03:26:08.301Z,10.88
2023-05-20T03:28:53.208Z,10.50
2023-05-20T03:31:38.264Z,10.85
2023-05-20T03:34:23.370Z,10.82
2023-05-20T03:37:08.208Z,10.77
2023-05-20T03:39:53.101Z,11.03
2023-05-20T03:42:38.852Z,10.81
2023-05-20T03:45:23.683Z,10.87
2023-05-20T03:48:08.505Z,10.90
2023-05-20T03:50:53.996Z,10.87
2023-05-20T03:53:39.212Z,11.01
2023-05-20T03:56:24.519Z,11.25
2023-05-20T03:59:10.307Z,11.57
2023-05-20T04:01:56.947Z,11.05
2023-05-20T04:04:45.536Z,11.36
2023-05-20T04:07:30.694Z,11.60
2023-05-20T04:10:15.549Z,11.31
2023-05-20T04:13:00.571Z,11.21
2023-05-20T04:15:46.627Z,11.35
2023-05-20T04:18:31.800Z,11.57
2023-05-20T04:21:17.050Z,11.44
2023-05-20T04:24:02.013Z,11.23
2023-05-20T04:26:48.121Z,11.17
2023-05-20T04:29:34.205Z,10.98
2023-05-20T04:32:19.544Z,11.01
2023-05-20T04:35:09.876Z,11.08
2023-05-20T04:37:55.505Z,11.31
2023-05-20T04:40:41.657Z,11.16
2023-05-20T04:43:30.062Z,11.30
2023-05-20T04:46:16.851Z,11.40
2023-05-20T04:49:02.067Z,11.42
2023-05-20T04:51:50.543Z,11.41
2023-05-20T04:54:35.564Z,11.35
2023-05-20T04:57:21.392Z,11.49
2023-05-20T05:00:10.346Z,11.41
2023-05-20T05:02:55.837Z,11.64
2023-05-20T05:05:42.413Z,11.48
2023-05-20T05:08:27.545Z,11.44
2023-05-20T05:11:12.317Z,11.48
2023-05-20T05:13:57.153Z,11.61
2023-05-20T05:16:42.255Z,11.80
2023-05-20T05:19:27.183Z,11.72
2023-05-20T05:22:12.916Z,11.86
2023-05-20T05:24:58.814Z,12.03
2023-05-20T05:27:44.712Z,12.04
2023-05-20T05:30:30.270Z,12.13
2023-05-20T05:33:15.958Z,12.21
2023-05-20T05:36:03.006Z,12.32
2023-05-20T05:38:47.971Z,12.43
2023-05-20T05:41:33.805Z,12.44
2023-05-20T05:44:18.731Z,12.42
2023-05-20T05:47:03.819Z,12.47
2023-05-20T05:49:48.848Z,12.46
2023-05-20T05:52:33.645Z,12.59
2023-05-20T05:55:18.566Z,12.64
2023-05-20T05:58:03.450Z,12.78
2023-05-20T06:00:52.763Z,12.75
2023-05-20T06:03:38.706Z,12.93
2023-05-20T06:06:24.000Z,13.11
2023-05-20T06:09:08.844Z,13.16
2023-05-20T06:11:53.968Z,13.19
2023-05-20T06:14:39.012Z,13.44
2023-05-20T06:17:24.430Z,13.59
2023-05-20T06:20:09.541Z,13.52
2023-05-20T06:22:54.789Z,13.60
2023-05-20T06:25:39.779Z,13.64
2023-05-20T06:28:25.662Z,13.68
2023-05-20T06:31:10.600Z,13.97
2023-05-20T06:33:56.020Z,14.25
2023-05-20T06:36:41.710Z,14.42
2023-05-20T06:39:26.808Z,14.47
2023-05-20T06:42:12.258Z,14.44
2023-05-20T06:44:57.204Z,14.73
2023-05-20T06:47:42.840Z,14.82
2023-05-20T06:50:28.399Z,14.80
2023-05-20T06:53:13.925Z,14.84
2023-05-20T06:55:58.960Z,14.89
2023-05-20T06:58:44.680Z,14.92
2023-05-20T07:01:29.558Z,14.89
2023-05-20T07:04:14.662Z,15.08
2023-05-20T07:06:59.911Z,15.23
2023-05-20T07:09:45.662Z,15.04
2023-05-20T07:12:30.761Z,14.85
2023-05-20T07:15:15.860Z,14.84
2023-05-20T07:18:01.008Z,14.98
2023-05-20T07:20:46.972Z,14.86
2023-05-20T07:23:34.215Z,14.84
2023-05-20T07:26:19.672Z,15.07
2023-05-20T07:29:05.314Z,15.29
2023-05-20T07:31:50.074Z,15.48
2023-05-20T07:34:35.757Z,15.63
2023-05-20T07:37:20.762Z,16.02
2023-05-20T07:40:07.946Z,15.95
2023-05-20T07:42:52.662Z,15.65
2023-05-20T07:45:37.671Z,15.61
2023-05-20T07:48:23.040Z,15.57
2023-05-20T07:51:07.850Z,15.33
2023-05-20T07:53:52.592Z,15.14
2023-05-20T07:56:37.721Z,15.27
2023-05-20T07:59:22.472Z,15.18
2023-05-20T08:02:08.496Z,15.13
2023-05-20T08:04:53.738Z,15.10
2023-05-20T08:07:38.537Z,15.05
2023-05-20T08:10:23.848Z,14.98
2023-05-20T08:13:08.745Z,15.02
2023-05-20T08:15:54.757Z,14.88
2023-05-20T08:18:40.087Z,14.83
2023-05-20T08:21:25.624Z,14.92
2023-05-20T08:24:10.400Z,14.96
2023-05-20T08:26:55.205Z,15.35
2023-05-20T08:29:40.102Z,15.72
2023-05-20T08:32:25.016Z,15.83
2023-05-20T08:35:10.157Z,16.07
2023-05-20T08:37:54.977Z,15.91
2023-05-20T08:40:42.475Z,16.15
2023-05-20T08:43:27.421Z,16.53
2023-05-20T08:46:12.790Z,16.34
2023-05-20T08:48:59.244Z,15.98
2023-05-20T08:51:46.500Z,15.67
2023-05-20T08:54:46.036Z,15.61
2023-05-20T08:57:31.249Z,15.55
2023-05-20T09:00:17.269Z,15.87
2023-05-20T09:03:03.108Z,16.07
2023-05-20T09:05:48.474Z,16.17
2023-05-20T09:08:34.074Z,16.32
2023-05-20T09:11:22.960Z,16.52
2023-05-20T09:14:08.808Z,16.46
2023-05-20T09:16:54.142Z,16.37
2023-05-20T09:19:39.108Z,16.16
2023-05-20T09:22:25.423Z,16.11
2023-05-20T09:25:12.307Z,15.74
2023-05-20T09:27:57.346Z,15.65
2023-05-20T09:30:44.491Z,15.72
2023-05-20T09:33:32.398Z,15.64
2023-05-20T09:36:17.723Z,15.70
2023-05-20T09:39:05.498Z,15.85
2023-05-20T09:42:09.427Z,15.91
2023-05-20T09:44:55.287Z,16.06
2023-05-20T09:47:41.677Z,15.99
2023-05-20T09:50:28.700Z,16.29
2023-05-20T09:53:14.523Z,16.43
2023-05-20T09:55:59.653Z,16.46
2023-05-20T09:58:45.691Z,16.52
2023-05-20T10:01:31.110Z,16.43
2023-05-20T10:04:18.858Z,16.24
2023-05-20T10:07:42.261Z,16.03
2023-05-20T10:10:45.856Z,15.91
2023-05-20T10:14:06.145Z,15.86
2023-05-20T10:17:07.779Z,15.62
2023-05-20T10:19:59.545Z,15.59
2023-05-20T10:22:57.129Z,15.54
2023-05-20T10:25:52.621Z,15.55
2023-05-20T10:28:41.112Z,15.59
2023-05-20T10:31:26.312Z,15.70
2023-05-20T10:34:17.476Z,15.69
2023-05-20T10:37:02.481Z,15.95
2023-05-20T10:39:49.272Z,15.93
2023-05-20T10:42:34.373Z,15.93
2023-05-20T10:45:29.666Z,16.15
2023-05-20T10:48:42.033Z,16.08
2023-05-20T10:51:29.565Z,16.00
2023-05-20T10:54:15.238Z,16.05
2023-05-20T10:57:00.656Z,16.11
2023-05-20T10:59:47.814Z,16.13
2023-05-20T11:02:34.126Z,16.06
2023-05-20T11:05:21.000Z,15.97
2023-05-20T11:08:20.649Z,15.95
2023-05-20T11:11:15.315Z,16.04
2023-05-20T11:14:00.742Z,16.11
2023-05-20T11:16:46.671Z,15.82
2023-05-20T11:19:31.844Z,15.77
2023-05-20T11:22:17.536Z,15.82
2023-05-20T11:25:07.205Z,15.94
2023-05-20T11:27:52.008Z,15.91
2023-05-20T11:30:39.655Z,15.99
2023-05-20T11:33:27.274Z,16.01
2023-05-20T11:36:26.863Z,15.96
2023-05-20T11:39:14.779Z,16.11
2023-05-20T11:41:59.801Z,16.12
2023-05-20T11:44:48.434Z,16.10
2023-05-20T11:47:33.967Z,16.22
2023-05-20T11:50:19.103Z,16.19
2023-05-20T11:53:06.309Z,16.25
2023-05-20T11:55:55.307Z,16.24
2023-05-20T11:58:40.147Z,16.20
2023-05-20T12:01:25.496Z,16.25
2023-05-20T12:04:11.229Z,16.35
2023-05-20T12:06:56.477Z,16.31
2023-05-20T12:09:41.406Z,16.39
2023-05-20T12:12:26.902Z,16.38
2023-05-20T12:15:12.328Z,16.37
2023-05-20T12:17:57.529Z,16.42
2023-05-20T12:20:42.745Z,16.61
2023-05-20T12:23:30.980Z,16.84
2023-05-20T12:26:16.223Z,16.85
2023-05-20T12:29:01.644Z,16.81
2023-05-20T12:31:47.880Z,17.01
2023-05-20T12:34:36.157Z,17.05
2023-05-20T12:37:22.264Z,17.43
2023-05-20T12:40:08.846Z,17.40
2023-05-20T12:42:53.829Z,17.36
2023-05-20T12:45:38.759Z,17.56
2023-05-20T12:48:23.529Z,17.99
2023-05-20T12:51:08.472Z,18.05
2023-05-20T12:53:53.243Z,18.06
2023-05-20T12:56:39.250Z,17.97
2023-05-20T12:59:24.017Z,18.32
2023-05-20T13:02:10.652Z,18.09
2023-05-20T13:04:56.275Z,18.21
2023-05-20T13:07:41.687Z,18.28
2023-05-20T13:10:26.778Z,18.74
2023-05-20T13:13:14.430Z,18.33
2023-05-20T13:15:59.695Z,17.92
2023-05-20T13:18:45.266Z,17.72
2023-05-20T13:21:32.795Z,17.27
2023-05-20T13:24:18.804Z,17.10
2023-05-20T13:27:04.627Z,17.07
2023-05-20T13:29:50.125Z,18.05
2023-05-20T13:32:35.192Z,18.95
2023-05-20T13:35:21.182Z,19.57
2023-05-20T13:38:06.298Z,19.61
2023-05-20T13:40:51.508Z,19.16
2023-05-20T13:43:37.356Z,18.40
2023-05-20T13:46:26.112Z,18.30
2023-05-20T13:49:11.304Z,18.16
2023-05-20T13:51:56.425Z,17.84
2023-05-20T13:54:42.951Z,17.83
2023-05-20T13:57:27.851Z,17.55
2023-05-20T14:00:13.995Z,17.70
2023-05-20T14:03:00.675Z,17.44
2023-05-20T14:05:46.276Z,17.83
2023-05-20T14:08:31.288Z,18.52
2023-05-20T14:11:16.774Z,19.19
2023-05-20T14:14:02.343Z,19.41
2023-05-20T14:16:47.896Z,20.12
2023-05-20T14:19:33.009Z,20.51
2023-05-20T14:22:19.846Z,20.53
2023-05-20T14:25:05.814Z,20.00
2023-05-20T14:27:51.393Z,19.16
2023-05-20T14:30:37.143Z,18.83
2023-05-20T14:33:22.339Z,18.76
2023-05-20T14:36:09.341Z,19.02
2023-05-20T14:38:54.133Z,19.41
2023-05-20T14:41:39.727Z,20.20
2023-05-20T14:44:24.777Z,20.48
2023-05-20T14:47:10.836Z,20.17
2023-05-20T14:49:56.840Z,20.09
2023-05-20T14:52:42.262Z,20.00
2023-05-20T14:55:27.740Z,20.19
2023-05-20T14:58:12.723Z,20.20
2023-05-20T15:00:58.008Z,20.35
2023-05-20T15:03:43.296Z,19.87
2023-05-20T15:06:28.778Z,19.72
2023-05-20T15:09:13.847Z,19.38
2023-05-20T15:11:58.681Z,19.24
2023-05-20T15:14:43.527Z,19.03
2023-05-20T15:17:29.368Z,18.85
2023-05-20T15:20:14.850Z,18.67
2023-05-20T15:23:01.061Z,18.81
2023-05-20T15:25:46.840Z,18.93
2023-05-20T15:28:31.905Z,19.06
2023-05-20T15:31:17.219Z,19.27
2023-05-20T15:34:02.636Z,19.31
2023-05-20T15:36:48.371Z,19.29
2023-05-20T15:39:37.357Z,19.18
2023-05-20T15:42:22.380Z,19.01
2023-05-20T15:45:09.095Z,19.00
2023-05-20T15:47:54.694Z,19.05
2023-05-20T15:50:40.354Z,19.25
2023-05-20T15:53:25.427Z,19.55
2023-05-20T15:56:12.805Z,19.63
2023-05-20T15:58:57.717Z,19.35
2023-05-20T16:01:42.942Z,19.11
2023-05-20T16:04:28.055Z,18.98
2023-05-20T16:07:13.429Z,18.95
2023-05-20T16:09:58.361Z,19.06
2023-05-20T16:12:44.538Z,19.19
2023-05-20T16:15:35.833Z,19.37
2023-05-20T16:18:21.154Z,19.50
2023-05-20T16:21:08.347Z,19.36
2023-05-20T16:23:53.507Z,19.27
2023-05-20T16:26:38.377Z,18.83
2023-05-20T16:29:23.298Z,18.80
2023-05-20T16:32:08.646Z,18.76
2023-05-20T16:34:54.659Z,18.67
2023-05-20T16:37:39.788Z,18.92
2023-05-20T16:40:24.765Z,19.13
2023-05-20T16:43:10.595Z,18.88
2023-05-20T16:45:56.116Z,18.59
2023-05-20T16:48:42.729Z,18.50
2023-05-20T16:51:27.741Z,18.45
2023-05-20T16:54:13.025Z,18.40
2023-05-20T16:56:58.183Z,18.44
2023-05-20T16:59:43.153Z,18.29
2023-05-20T17:02:29.830Z,18.32
2023-05-20T17:05:16.776Z,18.32
2023-05-20T17:08:04.600Z,18.42
2023-05-20T17:10:52.444Z,18.30
2023-05-20T17:13:42.056Z,18.37
2023-05-20T17:16:27.374Z,18.30
2023-05-20T17:19:12.163Z,18.19
2023-05-20T17:21:58.411Z,18.04
2023-05-20T17:24:44.893Z,17.98
2023-05-20T17:27:30.205Z,18.02
2023-05-20T17:30:15.819Z,17.90
2023-05-20T17:33:01.467Z,17.94
2023-05-20T17:35:47.118Z,18.02
2023-05-20T17:38:32.678Z,17.99
2023-05-20T17:41:23.864Z,17.95
2023-05-20T17:44:09.504Z,17.87
2023-05-20T17:46:54.198Z,17.87
2023-05-20T17:49:39.594Z,17.81
2023-05-20T17:52:24.629Z,17.73
2023-05-20T17:55:10.113Z,17.66
2023-05-20T17:57:58.060Z,17.76
2023-05-20T18:00:42.927Z,17.70
2023-05-20T18:03:29.041Z,17.58
2023-05-20T18:06:14.197Z,17.47
2023-05-20T18:08:59.922Z,17.36
2023-05-20T18:11:44.947Z,17.37
2023-05-20T18:14:32.593Z,17.29
2023-05-20T18:17:17.901Z,17.24
2023-05-20T18:20:04.421Z,17.24
2023-05-20T18:22:52.158Z,17.27
2023-05-20T18:25:38.320Z,17.27
2023-05-20T18:28:24.370Z,17.27
2023-05-20T18:31:09.194Z,17.28
2023-05-20T18:33:54.438Z,17.23
2023-05-20T18:36:40.760Z,17.06
2023-05-20T18:39:26.650Z,16.99
2023-05-20T18:42:11.605Z,16.77
2023-05-20T18:44:56.805Z,16.89
2023-05-20T18:47:42.105Z,16.70
2023-05-20T18:50:27.228Z,16.72
2023-05-20T18:53:13.440Z,16.60
2023-05-20T18:56:02.882Z,16.45
2023-05-20T18:58:49.333Z,16.42
2023-05-20T19:01:36.860Z,16.38
2023-05-20T19:04:22.677Z,16.22
2023-05-20T19:07:10.384Z,16.21
2023-05-20T19:09:56.724Z,16.23
2023-05-20T19:12:43.789Z,16.16
2023-05-20T19:15:30.112Z,16.12
2023-05-20T19:18:15.656Z,16.08
2023-05-20T19:21:00.518Z,16.09
2023-05-20T19:23:46.837Z,16.07
2023-05-20T19:26:33.493Z,16.11
2023-05-20T19:29:19.378Z,16.05
2023-05-20T19:32:06.205Z,16.00
2023-05-20T19:34:52.244Z,16.00
2023-05-20T19:37:37.382Z,15.97
2023-05-20T19:40:22.663Z,15.99
2023-05-20T19:43:07.948Z,16.02
2023-05-20T19:45:52.839Z,15.90
2023-05-20T19:48:38.160Z,15.90
2023-05-20T19:51:23.197Z,15.82
2023-05-20T19:54:08.005Z,15.81
2023-05-20T19:56:52.807Z,15.78
2023-05-20T19:59:38.045Z,15.76
2023-05-20T20:02:23.812Z,15.55
2023-05-20T20:05:09.794Z,15.68
2023-05-20T20:07:55.239Z,15.71
2023-05-20T20:10:40.401Z,15.72
2023-05-20T20:13:25.603Z,15.66
2023-05-20T20:16:10.930Z,15.63
2023-05-20T20:18:56.237Z,15.58
2023-05-20T20:21:42.902Z,15.62
2023-05-20T20:24:28.790Z,15.67
2023-05-20T20:27:13.912Z,15.58
2023-05-20T20:30:00.635Z,15.39
2023-05-20T20:32:48.463Z,15.54
2023-05-20T20:35:36.691Z,15.49
2023-05-20T20:38:22.312Z,15.45
2023-05-20T20:41:09.378Z,15.45
2023-05-20T20:43:55.608Z,15.39
2023-05-20T20:46:42.598Z,15.44
2023-05-20T20:49:28.747Z,15.28
2023-05-20T20:52:14.163Z,15.42
2023-05-20T20:55:02.167Z,15.37
2023-05-20T20:57:47.918Z,15.26
2023-05-20T21:00:33.738Z,15.38
2023-05-20T21:03:18.935Z,15.30
2023-05-20T21:06:04.183Z,15.25
2023-05-20T21:08:49.273Z,15.08
2023-05-20T21:11:38.141Z,15.14
2023-05-20T21:14:25.837Z,15.16
2023-05-20T21:17:12.060Z,15.11
2023-05-20T21:19:58.468Z,15.26
2023-05-20T21:22:44.708Z,15.18
2023-05-20T21:25:29.964Z,15.17
2023-05-20T21:28:16.996Z,15.14
2023-05-20T21:31:01.830Z,15.13
2023-05-20T21:33:48.106Z,15.14
2023-05-20T21:36:33.396Z,15.21
2023-05-20T21:39:18.648Z,15.07
2023-05-20T21:42:06.601Z,15.15
2023-05-20T21:44:54.900Z,15.04
2023-05-20T21:47:40.562Z,14.97
2023-05-20T21:50:25.634Z,14.99
2023-05-20T21:53:10.365Z,14.91
2023-05-20T21:55:55.400Z,14.90
2023-05-20T21:58:42.105Z,14.94
2023-05-20T22:01:27.542Z,14.98
2023-05-20T22:04:13.335Z,14.98
2023-05-20T22:06:58.471Z,14.88
2023-05-20T22:09:43.748Z,14.97
2023-05-20T22:12:29.193Z,14.99
2023-05-20T22:15:14.180Z,14.87
2023-05-20T22:17:59.113Z,14.90
2023-05-20T22:20:45.219Z,14.81
2023-05-20T22:23:30.563Z,14.83
2023-05-20T22:26:19.089Z,14.78
2023-05-20T22:29:04.424Z,14.81
2023-05-20T22:31:49.487Z,14.72
2023-05-20T22:34:34.799Z,14.67
2023-05-20T22:37:21.022Z,14.70
2023-05-20T22:40:07.136Z,14.56
2023-05-20T22:42:53.900Z,14.45
2023-05-20T22:45:40.293Z,14.36
2023-05-20T22:48:25.579Z,14.38
2023-05-20T22:51:11.890Z,14.42
2023-05-20T22:53:56.625Z,14.28
2023-05-20T22:56:42.285Z,14.14
2023-05-20T22:59:30.852Z,14.07
2023-05-20T23:02:15.912Z,14.09
2023-05-20T23:05:02.446Z,14.02
2023-05-20T23:07:47.345Z,13.96
2023-05-20T23:10:32.113Z,13.96
2023-05-20T23:13:17.067Z,13.77
2023-05-20T23:16:02.045Z,13.75
2023-05-20T23:18:47.523Z,13.70
2023-05-20T23:21:32.589Z,13.72
2023-05-20T23:24:17.885Z,13.67
2023-05-20T23:27:04.389Z,13.60
2023-05-20T23:29:49.227Z,13.62
2023-05-20T23:32:34.131Z,13.66
2023-05-20T23:35:19.707Z,13.58
2023-05-20T23:38:04.921Z,13.63
2023-05-20T23:40:49.866Z,13.58
2023-05-20T23:43:34.702Z,13.59
2023-05-20T23:46:20.913Z,13.64
2023-05-20T23:49:06.608Z,13.58
2023-05-20T23:51:51.690Z,13.51
2023-05-20T23:54:36.631Z,13.51
2023-05-20T23:57:22.453Z,13.41
